Time;durP1;ratioP1;P1;durP2;ratioP2;P2;SDS_P1;SDS_P2;PMS_P1;PMS_P2;Temp;Humidity;BMP_temperature;BMP_pressure;BME280_temperature;BME280_humidity;BME280_pressure;Samples;Min_cycle;Max_cycle;Signal;HPM_P1;HPM_P2
2023/03/17 00:01:41;;;;;;;4.60;2.15;;;11.20;80.30;;;;;;5117217;27;20513;-83
2023/03/17 00:04:13;;;;;;;2.30;1.52;;;11.20;79.70;;;;;;5120102;28;20019;-83
2023/03/17 00:06:40;;;;;;;2.88;1.30;;;11.10;80.00;;;;;;5118356;28;20058;-81
2023/03/17 00:09:13;;;;;;;5.18;2.17;;;11.10;80.10;;;;;;5118758;28;20070;-84
2023/03/17 00:11:39;;;;;;;3.83;1.85;;;11.10;80.10;;;;;;5135231;27;20033;-83
2023/03/17 00:14:04;;;;;;;3.15;1.85;;;11.10;80.00;;;;;;5118821;28;20090;-82
2023/03/17 00:16:35;;;;;;;5.78;2.58;;;11.20;80.10;;;;;;5122177;27;20020;-82
2023/03/17 00:19:01;;;;;;;5.00;2.03;;;11.20;80.00;;;;;;5129940;28;20027;-82
2023/03/17 00:21:30;;;;;;;3.33;1.70;;;11.10;80.10;;;;;;5121344;27;20012;-83
2023/03/17 00:23:57;;;;;;;3.78;1.92;;;11.10;79.80;;;;;;5125413;27;20023;-82
2023/03/17 00:26:23;;;;;;;3.30;2.15;;;11.20;80.00;;;;;;5131704;27;20023;-83
2023/03/17 00:28:49;;;;;;;2.58;1.75;;;11.20;80.00;;;;;;5116673;27;20073;-81
2023/03/17 00:31:21;;;;;;;4.15;2.22;;;11.20;80.30;;;;;;5116964;27;20114;-82
2023/03/17 00:33:48;;;;;;;3.75;1.90;;;11.10;80.50;;;;;;5108985;27;20478;-82
2023/03/17 00:36:18;;;;;;;4.35;1.88;;;11.10;80.40;;;;;;5115088;27;20046;-83
2023/03/17 00:38:44;;;;;;;3.53;2.17;;;11.10;80.60;;;;;;5117627;28;20067;-84
2023/03/17 00:41:11;;;;;;;3.70;2.00;;;11.10;80.70;;;;;;5121626;27;20030;-81
2023/03/17 00:43:37;;;;;;;3.80;2.38;;;11.10;80.90;;;;;;5123257;28;20020;-82
2023/03/17 00:46:14;;;;;;;3.55;1.75;;;11.10;80.70;;;;;;5118186;27;20497;-82
2023/03/17 00:48:41;;;;;;;3.90;2.17;;;11.10;80.80;;;;;;5117112;27;20015;-81
2023/03/17 00:51:07;;;;;;;3.03;1.83;;;11.10;80.80;;;;;;5118661;27;20051;-84
2023/03/17 00:53:33;;;;;;;5.00;2.22;;;11.10;80.70;;;;;;5117284;28;20540;-84
2023/03/17 00:55:59;;;;;;;2.35;1.98;;;11.10;81.00;;;;;;5117489;27;20019;-83
2023/03/17 00:58:31;;;;;;;5.05;2.08;;;11.10;81.10;;;;;;5118552;27;20164;-83
2023/03/17 01:00:57;;;;;;;5.07;2.03;;;11.10;81.10;;;;;;5132222;27;20130;-85
2023/03/17 01:03:23;;;;;;;3.95;2.13;;;11.10;81.10;;;;;;5110133;27;20744;-82
2023/03/17 01:05:51;;;;;;;5.72;2.17;;;11.10;81.60;;;;;;5114325;28;20417;-81
2023/03/17 01:08:18;;;;;;;4.30;2.00;;;11.00;81.90;;;;;;5116672;28;20050;-84
2023/03/17 01:10:47;;;;;;;3.42;1.98;;;11.00;82.00;;;;;;5103147;28;20023;-83
2023/03/17 01:13:13;;;;;;;4.10;1.98;;;11.00;81.90;;;;;;5101004;28;20058;-84
2023/03/17 01:15:43;;;;;;;2.05;1.70;;;11.00;82.20;;;;;;5105673;28;20065;-84
2023/03/17 01:18:11;;;;;;;5.10;1.73;;;11.10;82.20;;;;;;5105098;28;20062;-84
2023/03/17 01:20:38;;;;;;;6.88;1.70;;;11.00;82.20;;;;;;5099992;28;20546;-83
2023/03/17 01:23:04;;;;;;;5.70;2.03;;;11.00;82.30;;;;;;5106041;28;20016;-84
2023/03/17 01:25:30;;;;;;;4.45;1.52;;;11.00;82.40;;;;;;5100650;28;20024;-83
2023/03/17 01:27:58;;;;;;;5.97;2.03;;;11.00;82.40;;;;;;5103174;28;20620;-84
2023/03/17 01:30:30;;;;;;;2.20;1.75;;;11.00;82.30;;;;;;5102514;28;20020;-85
2023/03/17 01:32:57;;;;;;;3.55;1.80;;;10.90;82.20;;;;;;5104370;28;20390;-84
2023/03/17 01:35:25;;;;;;;6.43;2.25;;;10.90;82.40;;;;;;5103599;28;20028;-84
2023/03/17 01:37:51;;;;;;;3.08;1.92;;;10.90;82.50;;;;;;5117757;27;20031;-84
2023/03/17 01:40:21;;;;;;;3.72;1.90;;;10.90;82.50;;;;;;5102208;28;20378;-84
2023/03/17 01:42:53;;;;;;;5.50;2.00;;;10.90;82.60;;;;;;5099345;28;20028;-84
2023/03/17 01:45:57;;;;;;;2.78;2.10;;;10.90;82.60;;;;;;5104054;28;20020;-84
2023/03/17 01:48:24;;;;;;;2.60;1.83;;;10.90;82.90;;;;;;5094099;28;20020;-84
2023/03/17 01:50:52;;;;;;;3.70;1.95;;;10.90;82.90;;;;;;5112701;28;20019;-84
2023/03/17 01:53:20;;;;;;;6.35;2.00;;;10.90;82.90;;;;;;5122446;28;20004;-84
2023/03/17 01:55:48;;;;;;;5.30;1.90;;;10.90;83.10;;;;;;5124827;28;20019;-83
2023/03/17 01:58:15;;;;;;;2.60;2.00;;;10.90;83.30;;;;;;5123623;28;20028;-85
2023/03/17 02:00:42;;;;;;;2.38;1.70;;;10.90;83.30;;;;;;5107287;28;20712;-85
2023/03/17 02:03:11;;;;;;;8.10;2.58;;;10.90;83.50;;;;;;5102265;28;20039;-86
2023/03/17 02:05:38;;;;;;;2.05;1.55;;;10.90;84.20;;;;;;5104098;28;20020;-84
2023/03/17 02:08:11;;;;;;;5.80;2.33;;;10.80;83.70;;;;;;5104668;28;20018;-81
2023/03/17 02:10:39;;;;;;;3.05;1.55;;;10.80;83.80;;;;;;5100784;28;20046;-81
2023/03/17 02:13:07;;;;;;;4.95;2.03;;;10.70;84.00;;;;;;5099414;28;20050;-83
2023/03/17 02:15:41;;;;;;;3.13;1.67;;;10.80;83.80;;;;;;5100743;28;20020;-82
2023/03/17 02:18:11;;;;;;;4.63;1.70;;;10.80;84.00;;;;;;5094441;28;20032;-82
2023/03/17 02:20:37;;;;;;;4.25;2.33;;;10.80;83.90;;;;;;5101089;28;20034;-82
2023/03/17 02:23:04;;;;;;;3.10;1.90;;;10.80;83.90;;;;;;5103774;28;20027;-81
2023/03/17 02:25:33;;;;;;;4.45;1.92;;;10.80;83.80;;;;;;5102964;28;20047;-83
2023/03/17 02:28:07;;;;;;;6.82;1.88;;;10.80;83.70;;;;;;5102562;28;20046;-83
2023/03/17 02:30:34;;;;;;;5.35;2.10;;;10.80;83.90;;;;;;5100358;28;20499;-82
2023/03/17 02:33:01;;;;;;;3.58;1.75;;;10.80;84.00;;;;;;5104554;28;20102;-82
2023/03/17 02:35:27;;;;;;;3.38;1.63;;;10.70;84.10;;;;;;5103484;28;20345;-83
2023/03/17 02:37:52;;;;;;;2.58;2.00;;;10.70;84.30;;;;;;5107122;28;20506;-83
2023/03/17 02:40:19;;;;;;;4.22;1.80;;;10.70;84.40;;;;;;5100589;28;20483;-81
2023/03/17 02:42:45;;;;;;;4.07;1.95;;;10.60;84.40;;;;;;5102430;28;20019;-82
2023/03/17 02:45:12;;;;;;;4.43;1.80;;;10.60;84.60;;;;;;5100389;28;20515;-82
2023/03/17 02:47:37;;;;;;;2.15;1.65;;;10.60;84.70;;;;;;5105986;28;20379;-80
2023/03/17 02:50:10;;;;;;;3.55;1.63;;;10.60;84.80;;;;;;5105537;28;20024;-82
2023/03/17 02:52:36;;;;;;;1.88;1.70;;;10.60;84.80;;;;;;5101868;28;20111;-83
2023/03/17 02:55:02;;;;;;;4.07;1.83;;;10.60;85.00;;;;;;5098499;28;20103;-82
2023/03/17 02:57:27;;;;;;;2.70;1.48;;;10.60;84.90;;;;;;5098427;28;20135;-82
2023/03/17 02:59:53;;;;;;;3.63;1.80;;;10.60;85.00;;;;;;5101769;28;20016;-81
2023/03/17 03:02:18;;;;;;;5.57;1.67;;;10.50;85.10;;;;;;5101911;28;20626;-81
2023/03/17 03:04:45;;;;;;;3.42;1.73;;;10.60;85.20;;;;;;5102095;28;20022;-81
2023/03/17 03:07:11;;;;;;;6.00;1.95;;;10.50;85.10;;;;;;5099354;28;20467;-81
2023/03/17 03:09:36;;;;;;;2.28;1.65;;;10.50;85.20;;;;;;5100618;28;20023;-81
2023/03/17 03:12:02;;;;;;;2.28;1.85;;;10.50;85.10;;;;;;5123945;28;20038;-83
2023/03/17 03:14:28;;;;;;;4.95;1.60;;;10.50;85.20;;;;;;5121285;28;20050;-81
2023/03/17 03:16:54;;;;;;;4.10;1.80;;;10.50;85.30;;;;;;5115795;28;20020;-83
2023/03/17 03:19:23;;;;;;;4.38;1.65;;;10.50;85.60;;;;;;5123843;28;20091;-82
2023/03/17 03:21:50;;;;;;;2.47;1.77;;;10.40;85.40;;;;;;5124534;28;20057;-82
2023/03/17 03:24:16;;;;;;;2.22;1.50;;;10.40;85.70;;;;;;5125422;28;20046;-82
2023/03/17 03:26:47;;;;;;;4.00;1.45;;;10.40;85.70;;;;;;5126170;28;20024;-82
2023/03/17 03:29:12;;;;;;;2.92;1.90;;;10.30;85.80;;;;;;5122820;28;20027;-83
2023/03/17 03:31:40;;;;;;;2.25;1.52;;;10.40;85.80;;;;;;5122189;28;20374;-80
2023/03/17 03:34:06;;;;;;;3.35;1.73;;;10.40;85.80;;;;;;5100700;28;20011;-81
2023/03/17 03:36:32;;;;;;;4.53;1.80;;;10.30;85.70;;;;;;5103003;28;20100;-82
2023/03/17 03:38:58;;;;;;;2.72;1.67;;;10.40;85.80;;;;;;5101763;28;20402;-82
2023/03/17 03:41:24;;;;;;;6.45;1.80;;;10.30;85.80;;;;;;5098876;28;20036;-82
2023/03/17 03:43:50;;;;;;;5.25;1.90;;;10.30;85.90;;;;;;5103281;28;20455;-83
2023/03/17 03:46:16;;;;;;;2.75;1.35;;;10.40;86.00;;;;;;5092359;28;20367;-82
2023/03/17 03:48:42;;;;;;;5.68;1.52;;;10.40;85.90;;;;;;5100174;28;20502;-82
2023/03/17 03:51:08;;;;;;;2.60;1.88;;;10.30;86.60;;;;;;5103327;28;20087;-83
2023/03/17 03:53:33;;;;;;;4.43;1.60;;;10.40;85.90;;;;;;5099751;28;20743;-84
2023/03/17 03:55:59;;;;;;;3.63;2.15;;;10.40;85.90;;;;;;5100663;28;20012;-84
2023/03/17 03:58:25;;;;;;;2.42;1.50;;;10.40;85.80;;;;;;5100899;28;20039;-82
2023/03/17 04:00:50;;;;;;;4.40;1.70;;;10.40;85.90;;;;;;5096021;28;20587;-81
2023/03/17 04:03:16;;;;;;;6.05;1.92;;;10.40;85.70;;;;;;5104257;28;20533;-82
2023/03/17 04:05:42;;;;;;;6.55;1.88;;;10.40;85.70;;;;;;5101689;28;20115;-82
2023/03/17 04:08:08;;;;;;;1.92;1.73;;;10.40;85.70;;;;;;5101643;28;20062;-84
2023/03/17 04:10:33;;;;;;;2.17;1.77;;;10.40;85.80;;;;;;5099447;28;20491;-82
2023/03/17 04:13:00;;;;;;;2.50;1.38;;;10.40;86.10;;;;;;5101300;28;20027;-82
2023/03/17 04:15:26;;;;;;;1.70;1.30;;;10.30;86.20;;;;;;5094071;28;20038;-83
2023/03/17 04:17:53;;;;;;;3.97;1.77;;;10.30;86.20;;;;;;5098818;28;20029;-84
2023/03/17 04:20:19;;;;;;;3.17;1.85;;;10.30;86.50;;;;;;5101778;28;20081;-82
2023/03/17 04:22:45;;;;;;;5.03;2.10;;;10.30;86.30;;;;;;5100906;28;20058;-82
2023/03/17 04:25:13;;;;;;;3.88;1.80;;;10.30;86.40;;;;;;5099732;28;20047;-85
2023/03/17 04:27:39;;;;;;;4.45;2.92;;;10.30;86.40;;;;;;5103245;28;20027;-83
2023/03/17 04:30:06;;;;;;;6.88;2.10;;;10.20;86.60;;;;;;5100001;28;20016;-82
2023/03/17 04:32:32;;;;;;;4.28;2.13;;;10.20;86.90;;;;;;5100327;28;20031;-81
2023/03/17 04:35:01;;;;;;;5.15;2.10;;;10.20;86.90;;;;;;5097574;28;20031;-82
2023/03/17 04:37:26;;;;;;;7.53;2.20;;;10.20;87.00;;;;;;5098723;28;20454;-82
2023/03/17 04:39:55;;;;;;;5.18;1.73;;;10.20;86.90;;;;;;5102041;28;20099;-82
2023/03/17 04:42:20;;;;;;;2.35;1.98;;;10.10;87.00;;;;;;5098901;28;20386;-82
2023/03/17 04:44:49;;;;;;;1.95;1.63;;;10.20;86.90;;;;;;5101419;28;20019;-81
2023/03/17 04:47:15;;;;;;;2.40;1.77;;;10.10;86.90;;;;;;5102252;28;20027;-81
2023/03/17 04:49:41;;;;;;;3.45;1.85;;;10.20;86.70;;;;;;5101950;28;20505;-81
2023/03/17 04:52:06;;;;;;;3.70;1.88;;;10.10;86.80;;;;;;5101241;28;20024;-83
2023/03/17 04:54:32;;;;;;;3.70;1.70;;;10.20;86.80;;;;;;5101584;28;20130;-83
2023/03/17 04:56:58;;;;;;;3.28;1.80;;;10.30;86.70;;;;;;5103244;28;20584;-83
2023/03/17 04:59:23;;;;;;;5.63;2.00;;;10.30;86.80;;;;;;5104053;28;20078;-82
2023/03/17 05:01:51;;;;;;;9.27;2.10;;;10.30;86.70;;;;;;5103479;28;20007;-83
2023/03/17 05:04:17;;;;;;;2.58;1.63;;;10.20;86.90;;;;;;5104623;28;20023;-82
2023/03/17 05:06:43;;;;;;;3.40;1.80;;;10.20;87.10;;;;;;5105035;28;20030;-82
2023/03/17 05:09:09;;;;;;;2.97;1.90;;;10.20;87.20;;;;;;5095423;28;20111;-83
2023/03/17 05:11:35;;;;;;;2.90;1.88;;;10.20;87.10;;;;;;5100069;28;20055;-84
2023/03/17 05:14:02;;;;;;;3.63;1.73;;;10.20;87.10;;;;;;5104336;28;20007;-82
2023/03/17 05:16:28;;;;;;;3.72;1.75;;;10.20;87.20;;;;;;5105325;28;20037;-83
2023/03/17 05:18:54;;;;;;;7.60;1.65;;;10.20;87.60;;;;;;5102400;28;20040;-83
2023/03/17 05:21:20;;;;;;;3.90;2.15;;;10.10;87.90;;;;;;5103015;28;20558;-81
2023/03/17 05:23:49;;;;;;;9.90;2.10;;;10.10;88.10;;;;;;5103963;28;20272;-81
2023/03/17 05:26:15;;;;;;;5.05;2.20;;;10.10;88.40;;;;;;5103828;28;20572;-81
2023/03/17 05:28:40;;;;;;;4.70;1.90;;;10.10;88.60;;;;;;5104816;28;20024;-81
2023/03/17 05:31:07;;;;;;;3.83;1.88;;;10.00;88.70;;;;;;5105941;28;20027;-81
2023/03/17 05:33:33;;;;;;;5.05;2.25;;;10.00;89.10;;;;;;5101358;28;20034;-83
2023/03/17 05:35:59;;;;;;;4.45;1.98;;;10.00;89.10;;;;;;5107043;28;20024;-82
2023/03/17 05:38:24;;;;;;;8.60;2.50;;;10.00;89.10;;;;;;5103666;28;20801;-82
2023/03/17 05:40:51;;;;;;;3.63;2.17;;;10.00;89.10;;;;;;5102524;28;20019;-82
2023/03/17 05:43:17;;;;;;;6.70;2.38;;;9.90;89.20;;;;;;5105642;28;20697;-82
2023/03/17 05:45:43;;;;;;;5.20;2.70;;;10.00;89.60;;;;;;5100146;28;20050;-81
2023/03/17 05:48:11;;;;;;;6.53;2.80;;;9.90;89.40;;;;;;5106236;28;20103;-82
2023/03/17 05:50:40;;;;;;;14.05;2.55;;;10.00;89.40;;;;;;5108326;28;20039;-82
2023/03/17 05:53:06;;;;;;;6.15;2.40;;;10.00;89.30;;;;;;5108862;28;20511;-82
2023/03/17 05:55:31;;;;;;;8.65;2.20;;;10.00;89.20;;;;;;5106295;28;20065;-81
2023/03/17 05:57:57;;;;;;;4.70;2.28;;;10.00;89.20;;;;;;5099325;28;20032;-82
2023/03/17 06:00:23;;;;;;;5.90;2.35;;;10.00;89.40;;;;;;5104182;28;20096;-83
2023/03/17 06:02:49;;;;;;;3.10;2.22;;;10.00;89.20;;;;;;5105393;28;20027;-82
2023/03/17 06:05:15;;;;;;;6.70;2.15;;;10.00;89.30;;;;;;5101727;28;20118;-82
2023/03/17 06:07:41;;;;;;;6.93;2.53;;;10.10;89.40;;;;;;5104245;28;20103;-82
2023/03/17 06:10:07;;;;;;;6.47;2.53;;;10.10;89.40;;;;;;5101975;27;20016;-83
2023/03/17 06:12:33;;;;;;;3.90;2.30;;;10.10;89.50;;;;;;5102963;28;20068;-82
2023/03/17 06:14:59;;;;;;;5.72;2.78;;;10.10;89.40;;;;;;5105465;28;20027;-82
2023/03/17 06:17:25;;;;;;;3.22;2.08;;;10.10;89.40;;;;;;5099797;28;20100;-82
2023/03/17 06:19:50;;;;;;;11.90;2.35;;;10.20;89.20;;;;;;5102606;27;20020;-81
2023/03/17 06:22:16;;;;;;;6.88;2.63;;;10.20;88.90;;;;;;5102323;28;20027;-82
2023/03/17 06:24:42;;;;;;;3.97;2.17;;;10.30;88.40;;;;;;5103990;27;20041;-82
2023/03/17 06:27:09;;;;;;;11.95;2.22;;;10.40;88.40;;;;;;5103030;28;20024;-83
2023/03/17 06:29:36;;;;;;;3.67;2.25;;;10.40;88.60;;;;;;5102417;28;20035;-83
2023/03/17 06:32:02;;;;;;;2.50;1.95;;;10.40;88.20;;;;;;5104922;28;20099;-83
2023/03/17 06:34:28;;;;;;;3.90;2.05;;;10.50;88.20;;;;;;5101638;28;20119;-83
2023/03/17 06:36:54;;;;;;;4.38;2.20;;;10.50;87.80;;;;;;5103299;28;20023;-84
2023/03/17 06:39:20;;;;;;;2.85;2.30;;;10.60;87.60;;;;;;5103526;28;20039;-83
2023/03/17 06:41:46;;;;;;;2.92;1.90;;;10.60;87.40;;;;;;5102131;28;20123;-84
2023/03/17 06:44:12;;;;;;;7.00;2.38;;;10.70;87.40;;;;;;5102416;28;20118;-83
2023/03/17 06:46:38;;;;;;;4.13;2.17;;;10.70;87.00;;;;;;5102685;28;20478;-83
2023/03/17 06:49:04;;;;;;;5.43;2.28;;;10.70;86.90;;;;;;5114400;28;20023;-85
2023/03/17 06:51:35;;;;;;;6.45;2.40;;;10.80;86.70;;;;;;5109506;28;20022;-82
2023/03/17 06:54:03;;;;;;;5.97;2.30;;;10.90;86.60;;;;;;5111650;28;20007;-82
2023/03/17 06:56:28;;;;;;;8.45;2.58;;;11.00;86.30;;;;;;5109440;28;20020;-82
2023/03/17 06:58:56;;;;;;;5.30;2.15;;;11.00;86.40;;;;;;5103594;28;20058;-82
2023/03/17 07:01:22;;;;;;;9.27;3.60;;;11.10;86.80;;;;;;5101933;28;20367;-82
2023/03/17 07:03:48;;;;;;;2.65;2.33;;;11.20;86.70;;;;;;5103856;28;20178;-82
2023/03/17 07:06:14;;;;;;;4.93;2.60;;;11.30;86.50;;;;;;5101534;28;20110;-82
2023/03/17 07:08:40;;;;;;;8.02;2.65;;;11.40;86.40;;;;;;5093899;28;20451;-82
2023/03/17 07:11:06;;;;;;;6.00;2.25;;;11.40;86.30;;;;;;5096436;28;20023;-83
2023/03/17 07:13:36;;;;;;;9.05;3.10;;;11.50;86.50;;;;;;5101377;28;20037;-83
2023/03/17 07:16:02;;;;;;;2.90;2.60;;;11.40;86.20;;;;;;5099133;28;20024;-84
2023/03/17 07:18:32;;;;;;;6.13;2.85;;;11.40;86.80;;;;;;5101457;28;20092;-83
2023/03/17 07:20:58;;;;;;;5.18;2.70;;;11.40;86.40;;;;;;5097732;28;20588;-83
2023/03/17 07:23:25;;;;;;;12.05;2.97;;;11.50;86.30;;;;;;5099379;28;20029;-83
2023/03/17 07:26:10;;;;;;;4.75;2.60;;;11.60;86.60;;;;;;5096904;28;20019;-85
2023/03/17 07:28:36;;;;;;;8.40;3.47;;;11.50;86.30;;;;;;5105302;27;20731;-80
2023/03/17 07:31:01;;;;;;;7.55;3.00;;;11.60;86.40;;;;;;5099194;28;20027;-82
2023/03/17 07:33:28;;;;;;;137.85;54.05;;;11.60;86.00;;;;;;5100640;28;20038;-82
2023/03/17 07:35:54;;;;;;;23.33;7.55;;;11.70;85.50;;;;;;5103096;28;20066;-83
2023/03/17 07:38:20;;;;;;;4.57;2.60;;;11.80;86.00;;;;;;5098333;28;20043;-80
2023/03/17 07:40:47;;;;;;;3.40;2.42;;;11.90;85.20;;;;;;5099406;28;20046;-81
2023/03/17 07:43:15;;;;;;;3.55;2.50;;;11.80;85.40;;;;;;5098163;28;20032;-81
2023/03/17 07:45:45;;;;;;;5.55;2.78;;;12.00;85.10;;;;;;5102432;28;20012;-81
2023/03/17 07:48:11;;;;;;;5.43;2.28;;;12.10;85.40;;;;;;5100864;28;20020;-82
2023/03/17 07:50:37;;;;;;;6.85;3.03;;;12.10;84.30;;;;;;5108400;28;20050;-82
2023/03/17 07:53:03;;;;;;;5.97;2.50;;;12.10;83.70;;;;;;5102639;28;20123;-82
2023/03/17 07:55:30;;;;;;;12.77;2.83;;;12.20;83.60;;;;;;5102285;28;20069;-81
2023/03/17 07:57:56;;;;;;;6.80;3.25;;;12.20;82.70;;;;;;5097596;28;20043;-84
2023/03/17 08:00:23;;;;;;;8.52;2.85;;;12.30;83.00;;;;;;5098722;28;20399;-81
2023/03/17 08:02:50;;;;;;;13.13;3.03;;;12.20;82.60;;;;;;5098369;28;20433;-83
2023/03/17 08:05:16;;;;;;;41.50;12.13;;;12.40;84.20;;;;;;5115505;28;20186;-84
2023/03/17 08:07:42;;;;;;;15.60;3.38;;;12.40;84.00;;;;;;5103397;28;20071;-84
2023/03/17 08:10:10;;;;;;;12.05;3.67;;;12.40;83.80;;;;;;5104231;28;20104;-82
2023/03/17 08:12:36;;;;;;;8.40;3.47;;;12.50;83.80;;;;;;5089221;28;20501;-80
2023/03/17 08:15:02;;;;;;;8.30;3.60;;;12.60;83.70;;;;;;5094411;28;20024;-82
2023/03/17 08:17:27;;;;;;;6.78;2.90;;;12.70;84.00;;;;;;5092809;28;20035;-82
2023/03/17 08:19:54;;;;;;;11.07;3.25;;;12.80;84.50;;;;;;5091958;27;21270;-82
2023/03/17 08:22:20;;;;;;;12.05;4.18;;;12.90;83.60;;;;;;5094809;27;20462;-82
2023/03/17 08:24:46;;;;;;;5.50;2.97;;;13.00;82.70;;;;;;5094909;28;20080;-81
2023/03/17 08:27:12;;;;;;;13.50;4.30;;;13.10;82.70;;;;;;5097673;27;20170;-82
2023/03/17 08:29:40;;;;;;;17.23;4.35;;;13.30;82.30;;;;;;5095422;28;20089;-81
2023/03/17 08:32:19;;;;;;;;;;;;;;;;;;;;;
2023/03/17 08:34:53;;;;;;;8.60;4.20;;;13.50;82.00;;;;;;5101363;28;20030;-83
2023/03/17 08:37:24;;;;;;;10.95;3.15;;;13.70;81.70;;;;;;5099683;28;20026;-86
2023/03/17 08:39:53;;;;;;;9.02;3.47;;;13.80;80.40;;;;;;5095739;27;20032;-86
2023/03/17 08:42:33;;;;;;;6.63;3.72;;;13.90;80.20;;;;;;5102257;28;20027;-86
2023/03/17 08:45:08;;;;;;;12.18;3.83;;;14.20;79.40;;;;;;5089275;27;20101;-87
2023/03/17 08:47:41;;;;;;;11.65;4.10;;;14.20;80.00;;;;;;5087379;28;20036;-84
2023/03/17 08:50:12;;;;;;;8.95;4.28;;;14.50;79.20;;;;;;5091913;27;20040;-84
2023/03/17 08:52:38;;;;;;;8.13;3.95;;;14.60;78.30;;;;;;5093423;28;20184;-87
2023/03/17 08:55:07;;;;;;;10.95;3.70;;;14.80;78.00;;;;;;5091248;28;20024;-83
2023/03/17 08:57:43;;;;;;;11.48;3.83;;;14.80;77.80;;;;;;5085639;27;20032;-83
2023/03/17 09:00:44;;;;;;;11.38;4.03;;;14.90;77.00;;;;;;5091469;28;20266;-80
2023/03/17 09:03:12;;;;;;;6.57;2.40;;;15.10;76.20;;;;;;5079378;27;20370;-80
2023/03/17 09:05:44;;;;;;;3.67;2.80;;;15.00;75.90;;;;;;5099468;28;20311;-83
2023/03/17 09:08:12;;;;;;;7.20;3.50;;;14.90;75.20;;;;;;5105824;28;20401;-84
2023/03/17 09:10:41;;;;;;;88.60;30.35;;;15.10;75.90;;;;;;5097416;28;20008;-81
2023/03/17 09:13:07;;;;;;;11.30;2.63;;;15.30;75.90;;;;;;5097213;28;20307;-85
2023/03/17 09:15:39;;;;;;;4.63;2.45;;;15.10;74.40;;;;;;5096341;28;20019;-83
2023/03/17 09:18:09;;;;;;;4.03;2.67;;;15.10;75.10;;;;;;5089361;28;20032;-84
2023/03/17 09:20:35;;;;;;;6.20;2.50;;;15.10;74.60;;;;;;5094229;28;20030;-83
2023/03/17 09:23:06;;;;;;;7.20;3.13;;;15.40;75.30;;;;;;5093844;28;20415;-85
2023/03/17 09:25:37;;;;;;;5.00;2.75;;;15.70;74.40;;;;;;5098756;28;20026;-88
2023/03/17 09:28:06;;;;;;;5.55;2.70;;;16.20;73.40;;;;;;5092857;28;20031;-85
2023/03/17 09:30:32;;;;;;;4.57;2.42;;;16.60;71.60;;;;;;5093874;28;20028;-87
2023/03/17 09:32:59;;;;;;;5.57;2.45;;;16.70;71.80;;;;;;5096387;28;20214;-87
2023/03/17 09:35:26;;;;;;;15.98;3.03;;;17.00;70.70;;;;;;5081609;28;20165;-87
2023/03/17 09:37:53;;;;;;;4.18;2.50;;;17.30;68.90;;;;;;5090010;28;20077;-88
2023/03/17 09:40:26;;;;;;;4.40;2.72;;;17.70;67.90;;;;;;5098567;28;20008;-88
2023/03/17 09:43:09;;;;;;;3.75;2.75;;;18.00;67.40;;;;;;5098537;28;20017;-87
2023/03/17 09:45:42;;;;;;;4.93;2.50;;;18.20;66.10;;;;;;5096528;28;20027;-88
2023/03/17 09:48:13;;;;;;;5.35;2.58;;;18.50;66.30;;;;;;5095329;28;20129;-89
2023/03/17 09:50:48;;;;;;;8.40;2.60;;;18.40;64.20;;;;;;5094717;28;20067;-85
2023/03/17 09:53:26;;;;;;;6.53;2.70;;;18.20;63.70;;;;;;5094789;28;20024;-85
2023/03/17 09:55:57;;;;;;;5.53;2.28;;;18.50;65.10;;;;;;5099315;28;20179;-85
2023/03/17 09:58:30;;;;;;;5.30;2.50;;;18.70;64.20;;;;;;5094744;28;20030;-84
2023/03/17 10:00:56;;;;;;;7.47;2.78;;;18.30;63.10;;;;;;5099809;28;20435;-84
2023/03/17 10:03:24;;;;;;;7.75;3.00;;;18.20;64.40;;;;;;5091186;28;20055;-83
2023/03/17 10:05:51;;;;;;;7.10;2.83;;;18.00;63.70;;;;;;5078619;28;20082;-82
2023/03/17 10:08:25;;;;;;;8.65;2.80;;;18.40;64.20;;;;;;5073877;28;20024;-88
2023/03/17 10:10:56;;;;;;;7.60;3.97;;;18.30;64.10;;;;;;5075402;28;20044;-82
2023/03/17 10:13:44;;;;;;;7.05;2.90;;;18.80;62.70;;;;;;5076437;28;20025;-82
2023/03/17 10:16:20;;;;;;;4.93;3.15;;;18.90;62.00;;;;;;5075145;28;20038;-83
2023/03/17 10:19:01;;;;;;;11.02;3.30;;;18.90;61.80;;;;;;5075186;28;20024;-85
2023/03/17 10:21:40;;;;;;;8.55;3.17;;;19.00;63.40;;;;;;5073529;28;20035;-84
2023/03/17 10:24:08;;;;;;;6.38;3.75;;;19.20;62.20;;;;;;5067408;28;20125;-84
2023/03/17 10:26:48;;;;;;;6.72;3.35;;;19.40;61.40;;;;;;5071168;28;20028;-83
2023/03/17 10:29:21;;;;;;;8.05;3.30;;;19.20;59.70;;;;;;5074703;28;20028;-85
2023/03/17 10:31:48;;;;;;;7.20;2.75;;;19.60;60.30;;;;;;5080498;28;20049;-86
2023/03/17 10:34:15;;;;;;;6.90;2.92;;;19.80;59.70;;;;;;5079957;28;20031;-83
2023/03/17 10:36:47;;;;;;;11.02;3.13;;;19.90;59.60;;;;;;5075955;28;20028;-83
2023/03/17 10:39:17;;;;;;;11.50;2.72;;;20.40;59.20;;;;;;5076693;28;20408;-81
2023/03/17 10:41:54;;;;;;;5.38;2.45;;;20.30;58.10;;;;;;5077465;28;21536;-88
2023/03/17 10:44:28;;;;;;;7.70;2.83;;;20.10;57.80;;;;;;5080086;28;20472;-84
2023/03/17 10:46:54;;;;;;;5.85;2.47;;;19.60;58.50;;;;;;5078146;28;20325;-85
2023/03/17 10:49:23;;;;;;;4.18;2.30;;;19.60;59.20;;;;;;5078593;28;20016;-86
2023/03/17 10:51:54;;;;;;;4.25;2.78;;;19.40;59.40;;;;;;5078584;28;20070;-86
2023/03/17 10:54:25;;;;;;;6.93;2.78;;;19.60;59.60;;;;;;5078048;28;20020;-85
2023/03/17 10:57:00;;;;;;;6.45;2.88;;;20.00;59.60;;;;;;5078495;28;20028;-83
2023/03/17 10:59:40;;;;;;;5.07;2.80;;;20.10;58.60;;;;;;5076651;28;20036;-84
2023/03/17 11:02:29;;;;;;;7.82;3.30;;;19.80;58.40;;;;;;5073498;28;20092;-84
2023/03/17 11:05:18;;;;;;;8.73;2.80;;;19.80;58.90;;;;;;5075798;28;20027;-84
2023/03/17 11:07:44;;;;;;;3.90;3.00;;;20.00;58.50;;;;;;5075030;28;20024;-88
2023/03/17 11:10:20;;;;;;;7.43;3.28;;;20.10;58.60;;;;;;5076514;28;20322;-84
2023/03/17 11:12:53;;;;;;;7.38;2.95;;;20.10;58.40;;;;;;5077816;28;20134;-83
2023/03/17 11:15:20;;;;;;;4.25;2.92;;;19.80;58.30;;;;;;5068749;28;20024;-81
2023/03/17 11:18:03;;;;;;;9.63;3.40;;;19.20;59.60;;;;;;5081715;28;20488;-82
2023/03/17 11:20:57;;;;;;;6.25;3.45;;;19.30;60.00;;;;;;5075505;28;20097;-81
2023/03/17 11:23:54;;;;;;;4.78;3.10;;;19.40;61.10;;;;;;5073454;28;20440;-82
2023/03/17 11:26:46;;;;;;;3.60;2.65;;;19.50;61.20;;;;;;5070836;28;20353;-83
2023/03/17 11:29:18;;;;;;;4.50;3.30;;;19.50;60.20;;;;;;5074488;28;20024;-83
2023/03/17 11:31:47;;;;;;;8.43;3.47;;;19.40;61.20;;;;;;5074541;28;20017;-82
2023/03/17 11:34:27;;;;;;;9.65;3.33;;;19.40;60.60;;;;;;5075678;28;20024;-82
2023/03/17 11:37:18;;;;;;;8.32;3.47;;;19.40;60.60;;;;;;5073098;28;20028;-83
2023/03/17 11:40:02;;;;;;;7.38;3.42;;;19.60;61.10;;;;;;5075258;28;20036;-84
2023/03/17 11:42:57;;;;;;;9.85;3.38;;;19.70;60.80;;;;;;5074090;28;20024;-85
2023/03/17 11:45:38;;;;;;;8.35;3.22;;;19.60;59.50;;;;;;5062362;28;20032;-85
2023/03/17 11:48:17;;;;;;;9.82;3.55;;;19.50;60.50;;;;;;5075383;28;20032;-86
2023/03/17 11:51:20;;;;;;;6.88;3.70;;;19.20;60.00;;;;;;5072948;28;20059;-84
2023/03/17 11:53:53;;;;;;;7.82;3.83;;;19.20;61.20;;;;;;5054945;28;20039;-87
2023/03/17 11:56:24;;;;;;;8.98;3.28;;;19.30;62.20;;;;;;5078270;28;20096;-86
2023/03/17 11:59:00;;;;;;;10.57;3.38;;;19.30;61.90;;;;;;5077737;28;20134;-85
2023/03/17 12:01:33;;;;;;;8.73;3.67;;;19.40;61.70;;;;;;5077443;28;20459;-85
2023/03/17 12:04:09;;;;;;;;;;;19.40;61.20;;;;;;5076885;28;20023;-85
2023/03/17 12:06:43;;;;;;;7.75;3.30;;;19.00;61.10;;;;;;5085593;28;19904;-86
2023/03/17 12:09:29;;;;;;;6.57;3.85;;;19.20;62.10;;;;;;5099668;28;20021;-84
2023/03/17 12:11:59;;;;;;;6.05;3.70;;;19.20;61.60;;;;;;5092889;28;20024;-84
2023/03/17 12:14:37;;;;;;;8.27;3.90;;;19.20;61.30;;;;;;5080981;28;20021;-85
2023/03/17 12:17:42;;;;;;;4.55;3.17;;;19.20;61.10;;;;;;5079482;28;20028;-85
2023/03/17 12:20:25;;;;;;;10.20;3.70;;;19.40;61.50;;;;;;5039634;28;20215;-86
2023/03/17 12:23:11;;;;;;;5.93;3.42;;;19.70;60.50;;;;;;5078108;28;20036;-86
2023/03/17 12:25:56;;;;;;;5.40;3.20;;;20.20;59.70;;;;;;5078198;28;20027;-85
2023/03/17 12:28:31;;;;;;;5.38;3.08;;;20.30;60.80;;;;;;5078009;28;20024;-86
2023/03/17 12:31:16;;;;;;;6.45;3.10;;;20.10;59.80;;;;;;5078603;28;20040;-85
2023/03/17 12:33:54;;;;;;;9.48;3.95;;;20.30;58.90;;;;;;5076908;28;20521;-85
2023/03/17 12:36:20;;;;;;;11.13;3.67;;;20.60;57.80;;;;;;5076167;28;20361;-86
2023/03/17 12:38:58;;;;;;;6.03;3.60;;;20.80;57.60;;;;;;5077090;28;20020;-85
2023/03/17 12:41:31;;;;;;;6.15;3.10;;;21.10;57.50;;;;;;5076230;28;20586;-85
2023/03/17 12:44:24;;;;;;;11.00;3.40;;;21.20;56.90;;;;;;5077534;28;20178;-85
2023/03/17 12:46:57;;;;;;;;;;;21.00;56.30;;;;;;5078002;28;20024;-86
2023/03/17 12:49:56;;;;;;;5.93;2.70;;;20.90;56.40;;;;;;5077987;28;20002;-86
2023/03/17 12:52:47;;;;;;;6.97;3.28;;;20.90;56.50;;;;;;5079232;28;20020;-87
2023/03/17 12:55:15;;;;;;;7.95;3.28;;;20.50;56.70;;;;;;5078501;28;20651;-84
2023/03/17 12:57:46;;;;;;;8.30;3.20;;;20.40;57.10;;;;;;5076549;28;20028;-87
2023/03/17 13:00:23;;;;;;;9.35;3.63;;;20.80;56.90;;;;;;5076065;28;20021;-87
2023/03/17 13:03:06;;;;;;;6.25;3.60;;;21.20;57.20;;;;;;5079305;28;20026;-87